Aviation Digital Data Service (ADDS)

Output produced by METARs form (2336 UTC 25 June 2019)
found at http://aviationweather.gov/metar/data/
 
KASD 252253Z AUTO 00000KT 10SM FEW024 32/25 A3004 RMK AO2 LTG DSNT W AND NW SLP173 T03170250
KASD 252241Z AUTO 00000KT 10SM SCT024 32/24 A3004 RMK AO2 LTG DSNT W AND NW T03170244
KASD 252329Z 2600/2624 VRB03KT P6SM FEW024 
     FM261500 10005KT P6SM SCT250 
     FM261900 14005KT P6SM SCT110